Tb_john — LJUO — position and weather

sailwx.info

Track history (hours):
 
Tides and Currents Weather Stations Pressure Air Temp Water Temp Dewpoint Dewpoint Depression Visibility Wind Speed Wind Dir Waves Ship Positions

Tb_john

Last reported at 2016-May-24 19:34 UTC. Time now 2016-May-24 19:39 UTC.
Position N 59°20' E 010°31'.

Length 33 m; draft 5 m.

Type: Tug. MMSI: 259599000.

Date/timePositionNaut miles runAvg speedWind from/ knotsBaromVisibWave heightAir tempDewpointWater temp
2016-May-24 19:34N 59°20' E 010°31'0 0.0
2016-May-24 18:34N 59°20' E 010°31'0 0.0
2016-May-24 17:33N 59°20' E 010°31'0 0.0
2016-May-24 16:34N 59°20' E 010°31'0 0.0
2016-May-24 15:34N 59°20' E 010°31'0 0.0
2016-May-24 14:34N 59°20' E 010°31'0 0.0
2016-May-24 13:34N 59°20' E 010°31'0 0.0
2016-May-24 12:34N 59°20' E 010°31'0 0.0
2016-May-24 11:34N 59°20' E 010°31'0 0.0
2016-May-24 10:34N 59°20' E 010°31'0 0.0
2016-May-24 09:34N 59°20' E 010°31'0 0.0
2016-May-24 08:33N 59°20' E 010°31'0 0.0
2016-May-24 07:34N 59°20' E 010°31'0 0.0
2016-May-24 06:33N 59°20' E 010°31'0 0.0
2016-May-24 05:34N 59°20' E 010°31'0 0.0
2016-May-24 04:34N 59°20' E 010°31'0 0.0
2016-May-24 03:34N 59°20' E 010°31'0 0.0
2016-May-24 02:34N 59°20' E 010°31'0 0.0
2016-May-24 01:34N 59°20' E 010°31'0 0.0
2016-May-24 00:34N 59°20' E 010°31'0 0.0
2016-May-23 23:33N 59°20' E 010°31'0 0.0
2016-May-23 22:34N 59°20' E 010°31'0 0.0
2016-May-23 21:34N 59°20' E 010°31'0 0.0
2016-May-23 20:34N 59°20' E 010°31'0 0.0
2016-May-23 19:34N 59°20' E 010°31'0 0.0
2016-May-23 18:34N 59°20' E 010°31'0 0.0
2016-May-23 17:34N 59°20' E 010°31'0 0.0
2016-May-23 16:33N 59°20' E 010°31'0 0.0
2016-May-23 15:34N 59°20' E 010°31'0 0.0
2016-May-23 14:34N 59°20' E 010°31'0 0.0
2016-May-23 13:34N 59°20' E 010°31'0 0.0
2016-May-23 12:34N 59°20' E 010°31'0 0.0
2016-May-23 11:34N 59°20' E 010°31'0 0.0
2016-May-23 10:34N 59°20' E 010°31'0 0.0
2016-May-23 09:34N 59°20' E 010°31'0 0.0
2016-May-23 08:33N 59°20' E 010°31'10 9.5
2016-May-23 07:34N 59°11' E 010°37'9 8.9
2016-May-23 06:34N 59°19' E 010°33'1 1.0
2016-May-23 05:34N 59°20' E 010°31'0 0.1
2016-May-23 04:34N 59°20' E 010°31'0 0.0
2016-May-23 03:34N 59°20' E 010°31'0 0.0
2016-May-23 02:34N 59°20' E 010°31'0 0.0
2016-May-23 01:34N 59°20' E 010°31'0 0.0
2016-May-23 00:34N 59°20' E 010°31'0 0.0
2016-May-22 23:34N 59°20' E 010°31'0 0.0
2016-May-22 22:34N 59°20' E 010°31'0 0.0
2016-May-22 21:33N 59°20' E 010°31'0 0.0
2016-May-22 20:33N 59°20' E 010°31'0 0.0
2016-May-22 19:34N 59°20' E 010°31'0 0.0
2016-May-22 18:34N 59°20' E 010°31'0 0.0
2016-May-22 17:34N 59°20' E 010°31'0 0.0
2016-May-22 16:34N 59°20' E 010°31'0 0.0
2016-May-22 15:34N 59°20' E 010°31'0 0.0
2016-May-22 14:34N 59°20' E 010°31'0 0.0
2016-May-22 13:34N 59°20' E 010°31'0 0.0
2016-May-22 12:33N 59°20' E 010°31'0 0.0
2016-May-22 11:34N 59°20' E 010°31'0 0.0
2016-May-22 10:34N 59°20' E 010°31'0 0.0
2016-May-22 09:34N 59°20' E 010°31'0 0.0
2016-May-22 08:34N 59°20' E 010°31'0 0.0
2016-May-22 07:34N 59°20' E 010°31'0 0.0
2016-May-22 06:34N 59°20' E 010°31'0 0.0
2016-May-22 05:34N 59°20' E 010°31'0 0.0
2016-May-22 04:34N 59°20' E 010°31'0 0.0
2016-May-22 03:34N 59°20' E 010°31'0 0.0
2016-May-22 02:34N 59°20' E 010°31'0 0.0
2016-May-22 01:34N 59°20' E 010°31'9 9.2
2016-May-22 00:34N 59°11' E 010°39'9 9.2
2016-May-21 23:34N 59°20' E 010°31'1 0.9
2016-May-21 22:34N 59°20' E 010°31'0 0.2
2016-May-21 21:34N 59°20' E 010°31'1 0.7
2016-May-21 20:34N 59°20' E 010°31'0 0.0
2016-May-21 19:34N 59°20' E 010°31'0 0.0
2016-May-21 18:34N 59°20' E 010°31'0 0.1
2016-May-21 17:34N 59°20' E 010°31'0 0.0
2016-May-21 16:34N 59°20' E 010°31'0 0.0
2016-May-21 15:34N 59°20' E 010°31'0 0.1
2016-May-21 14:34N 59°20' E 010°31'0 0.0
2016-May-21 13:34N 59°20' E 010°31'0 0.0
2016-May-21 12:34N 59°20' E 010°31'0 0.0
2016-May-21 11:34N 59°20' E 010°31'0 0.0
2016-May-21 10:34N 59°20' E 010°31'0 0.0
2016-May-21 09:34N 59°20' E 010°31'0 0.0
2016-May-21 08:34N 59°20' E 010°31'0 0.0
2016-May-21 07:34N 59°20' E 010°31'0 0.0
2016-May-21 06:34N 59°20' E 010°31'0 0.0
2016-May-21 05:34N 59°20' E 010°31'0 0.0
2016-May-21 04:34N 59°20' E 010°31'0 0.0
2016-May-21 03:33N 59°20' E 010°31'0 0.0
2016-May-21 02:34N 59°20' E 010°31'0 0.1
2016-May-21 01:34N 59°20' E 010°31'0 0.2
2016-May-21 00:34N 59°20' E 010°31'5 5.2
2016-May-20 23:34N 59°15' E 010°37'5 4.6
2016-May-20 22:34N 59°11' E 010°37'9 9.2
2016-May-20 21:34N 59°19' E 010°31'0 0.3
2016-May-20 20:34N 59°20' E 010°31'0 0.0
2016-May-20 19:34N 59°20' E 010°31'0 0.0
2016-May-20 18:34N 59°20' E 010°31'0 0.0
2016-May-20 17:34N 59°20' E 010°31'0 0.0
2016-May-20 16:34N 59°20' E 010°31'0 0.0
2016-May-20 15:34N 59°20' E 010°31'0 0.0
2016-May-20 14:33N 59°20' E 010°31'0 0.0
2016-May-20 13:34N 59°20' E 010°31'0 0.0
2016-May-20 12:33N 59°20' E 010°31'0 0.0
2016-May-20 11:34N 59°20' E 010°31'0 0.0
2016-May-20 10:34N 59°20' E 010°31'0 0.0
2016-May-20 09:34N 59°20' E 010°31'0 0.0
2016-May-20 08:34N 59°20' E 010°31'0 0.0
2016-May-20 07:34N 59°20' E 010°31'0 0.0
2016-May-20 06:34N 59°20' E 010°31'0 0.0
2016-May-20 05:34N 59°20' E 010°31'0 0.0
2016-May-20 04:34N 59°20' E 010°31'0 0.0
2016-May-20 03:34N 59°20' E 010°31'0 0.0
2016-May-20 02:34N 59°20' E 010°31'0 0.0
2016-May-20 01:34N 59°20' E 010°31'7 7.4
2016-May-20 00:34N 59°13' E 010°36'5 4.8
2016-May-19 23:34N 59°17' E 010°34'3 3.4
2016-May-19 22:33N 59°20' E 010°31'0 0.2
2016-May-19 21:34N 59°20' E 010°31'1 0.5
2016-May-19 20:34N 59°20' E 010°31'0 0.0
2016-May-19 19:33N 59°20' E 010°31'0 0.0
2016-May-19 18:34N 59°20' E 010°31'0 0.0
2016-May-19 17:34N 59°20' E 010°31'0 0.0
2016-May-19 16:34N 59°20' E 010°31'0 0.0
2016-May-19 15:34N 59°20' E 010°31'0 0.0
2016-May-19 14:34N 59°20' E 010°31'0 0.0
2016-May-19 13:34N 59°20' E 010°31'0 0.0
2016-May-19 12:34N 59°20' E 010°31'0 0.0
2016-May-19 11:34N 59°20' E 010°31'0 0.0
2016-May-19 10:34N 59°20' E 010°31'0 0.0
2016-May-19 09:34N 59°20' E 010°31'0 0.0
2016-May-19 08:34N 59°20' E 010°31'0 0.0
2016-May-19 07:34N 59°20' E 010°31'0 0.0
2016-May-19 06:34N 59°20' E 010°31'0 0.0
2016-May-19 05:34N 59°20' E 010°31'0 0.0
2016-May-19 04:34N 59°20' E 010°31'0 0.0
2016-May-19 03:34N 59°20' E 010°31'0 0.0
2016-May-19 02:34N 59°20' E 010°31'0 0.0
2016-May-19 01:34N 59°20' E 010°31'0 0.0
2016-May-19 00:34N 59°20' E 010°31'0 0.0
2016-May-18 23:34N 59°20' E 010°31'0 0.0
2016-May-18 22:34N 59°20' E 010°31'0 0.0
2016-May-18 21:34N 59°20' E 010°31'0 0.1
2016-May-18 20:34N 59°20' E 010°31'0 0.0
2016-May-18 19:33N 59°20' E 010°31'1 0.6
2016-May-18 18:33N 59°20' E 010°31'1 0.7
2016-May-18 17:34N 59°20' E 010°31'0 0.0
2016-May-18 16:34N 59°20' E 010°31'0 0.0
2016-May-18 15:34N 59°20' E 010°31'0 0.0
2016-May-18 14:34N 59°20' E 010°31'0 0.0
2016-May-18 13:34N 59°20' E 010°31'0 0.0
2016-May-18 12:34N 59°20' E 010°31'0 0.0
2016-May-18 11:34N 59°20' E 010°31'0 0.0
2016-May-18 10:34N 59°20' E 010°31'0 0.0
2016-May-18 09:34N 59°20' E 010°31'0 0.0
2016-May-18 08:34N 59°20' E 010°31'0 0.0
2016-May-18 07:34N 59°20' E 010°31'0 0.0
2016-May-18 06:34N 59°20' E 010°31'0 0.0
2016-May-18 05:33N 59°20' E 010°31'0 0.0
2016-May-18 04:34N 59°20' E 010°31'0 0.0
2016-May-18 03:34N 59°20' E 010°31'0 0.0
2016-May-18 02:34N 59°20' E 010°31'0 0.0
2016-May-18 01:33N 59°20' E 010°31'0 0.0
2016-May-18 00:34N 59°20' E 010°31'0 0.0
2016-May-17 23:34N 59°20' E 010°31'0 0.0
2016-May-17 22:34N 59°20' E 010°31'0 0.0
2016-May-17 21:34N 59°20' E 010°31'0 0.0
2016-May-17 20:34N 59°20' E 010°31'1 0.6
2016-May-17 19:34N 59°20' E 010°30'1 0.6
2016-May-17 18:34N 59°20' E 010°31'1 0.5
2016-May-17 17:34N 59°20' E 010°32'0 0.4
2016-May-17 16:34N 59°20' E 010°31'0 0.3
2016-May-17 15:33N 59°20' E 010°31'0 0.3
2016-May-17 14:33N 59°20' E 010°31'0 0.3
2016-May-17 13:34N 59°20' E 010°31'1 0.9
2016-May-17 12:34N 59°20' E 010°31'0 0.0
2016-May-17 11:34N 59°20' E 010°31'0 0.0
2016-May-17 10:33N 59°20' E 010°31'0 0.0
2016-May-17 09:34N 59°20' E 010°31'0 0.0
2016-May-17 08:34N 59°20' E 010°31'0 0.0
2016-May-17 07:34N 59°20' E 010°31'1 0.6
2016-May-17 06:34N 59°20' E 010°30'1 0.6
2016-May-17 05:34N 59°20' E 010°31'0 0.0
2016-May-17 04:34N 59°20' E 010°31'1 0.8
2016-May-17 03:34N 59°20' E 010°32'10 9.5
2016-May-17 02:34N 59°11' E 010°40'5 4.7
2016-May-17 01:33N 59°15' E 010°35'5 5.0
2016-May-17 00:34N 59°20' E 010°31'0 0.0
2016-May-16 23:33N 59°20' E 010°31'0 0.0
2016-May-16 22:33N 59°20' E 010°31'0 0.0
2016-May-16 21:34N 59°20' E 010°31'0 0.0
2016-May-16 20:34N 59°20' E 010°31'0 0.0
2016-May-16 19:34N 59°20' E 010°31'0 0.0
2016-May-16 18:34N 59°20' E 010°31'0 0.0
2016-May-16 17:34N 59°20' E 010°31'0 0.0
2016-May-16 16:34N 59°20' E 010°31'0 0.0
2016-May-16 15:34N 59°20' E 010°31'0 0.0
2016-May-16 14:34N 59°20' E 010°31'0 0.0
2016-May-16 13:34N 59°20' E 010°31'0 0.0
2016-May-16 12:34N 59°20' E 010°31'0 0.0
2016-May-16 11:34N 59°20' E 010°31'0 0.0
2016-May-16 10:34N 59°20' E 010°31'0 0.0
2016-May-16 09:34N 59°20' E 010°31'0 0.0
2016-May-16 08:34N 59°20' E 010°31'0 0.0
2016-May-16 07:34N 59°20' E 010°31'0 0.0
2016-May-16 06:34N 59°20' E 010°31'0 0.1
2016-May-16 05:34N 59°20' E 010°31'0 0.4
2016-May-16 04:34N 59°20' E 010°31'1 0.5
2016-May-16 03:34N 59°20' E 010°31'0 0.0
2016-May-16 02:34N 59°20' E 010°31'0 0.0
2016-May-16 01:34N 59°20' E 010°31'0 0.0
2016-May-16 00:34N 59°20' E 010°31'0 0.0
2016-May-15 23:34N 59°20' E 010°31'0 0.0
2016-May-15 22:34N 59°20' E 010°31'0 0.0
2016-May-15 21:34N 59°20' E 010°31'0 0.0
2016-May-15 20:34N 59°20' E 010°31'0 0.0
2016-May-15 19:34N 59°20' E 010°31'0 0.0
2016-May-15 18:34N 59°20' E 010°31'0 0.0
2016-May-15 17:34N 59°20' E 010°31'0 0.0
2016-May-15 16:34N 59°20' E 010°31'0 0.0
2016-May-15 15:34N 59°20' E 010°31'0 0.0
2016-May-15 14:34N 59°20' E 010°31'0 0.0
2016-May-15 13:34N 59°20' E 010°31'0 0.0
2016-May-15 12:34N 59°20' E 010°31'0 0.0
2016-May-15 11:34N 59°20' E 010°31'0 0.0
2016-May-15 10:33N 59°20' E 010°31'0 0.0
2016-May-15 09:34N 59°20' E 010°31'0 0.0
2016-May-15 08:34N 59°20' E 010°31'0 0.0
2016-May-15 07:34N 59°20' E 010°31'0 0.0
2016-May-15 06:34N 59°20' E 010°31'0 0.0
2016-May-15 05:34N 59°20' E 010°31'0 0.0
2016-May-15 04:34N 59°20' E 010°31'0 0.0
2016-May-15 03:34N 59°20' E 010°31'0 0.0
2016-May-15 02:34N 59°20' E 010°31'0 0.0
2016-May-15 01:34N 59°20' E 010°31'0 0.0
2016-May-15 00:34N 59°20' E 010°31'0 0.0
2016-May-14 23:34N 59°20' E 010°31'0 0.0
2016-May-14 22:33N 59°20' E 010°31'0 0.0
2016-May-14 21:34N 59°20' E 010°31'0 0.0
2016-May-14 20:34N 59°20' E 010°31'  
Track history (hours):
 
Tides and Currents Weather Stations Pressure Air Temp Water Temp Dewpoint Dewpoint Depression Visibility Wind Speed Wind Dir Waves Ship Positions

Tb_john

Last reported at 2016-May-24 19:34 UTC. Time now 2016-May-24 19:39 UTC.
Position N 59°20' E 010°31'.

Length 33 m; draft 5 m.

Type: Tug. MMSI: 259599000.

Date/timePositionNaut miles runAvg speedWind from/ knotsBaromVisibWave heightAir tempDewpointWater temp
2016-May-24 19:34N 59°20' E 010°31'0 0.0
2016-May-24 18:34N 59°20' E 010°31'0 0.0
2016-May-24 17:33N 59°20' E 010°31'0 0.0
2016-May-24 16:34N 59°20' E 010°31'0 0.0
2016-May-24 15:34N 59°20' E 010°31'0 0.0
2016-May-24 14:34N 59°20' E 010°31'0 0.0
2016-May-24 13:34N 59°20' E 010°31'0 0.0
2016-May-24 12:34N 59°20' E 010°31'0 0.0
2016-May-24 11:34N 59°20' E 010°31'0 0.0
2016-May-24 10:34N 59°20' E 010°31'0 0.0
2016-May-24 09:34N 59°20' E 010°31'0 0.0
2016-May-24 08:33N 59°20' E 010°31'0 0.0
2016-May-24 07:34N 59°20' E 010°31'0 0.0
2016-May-24 06:33N 59°20' E 010°31'0 0.0
2016-May-24 05:34N 59°20' E 010°31'0 0.0
2016-May-24 04:34N 59°20' E 010°31'0 0.0
2016-May-24 03:34N 59°20' E 010°31'0 0.0
2016-May-24 02:34N 59°20' E 010°31'0 0.0
2016-May-24 01:34N 59°20' E 010°31'0 0.0
2016-May-24 00:34N 59°20' E 010°31'0 0.0
2016-May-23 23:33N 59°20' E 010°31'0 0.0
2016-May-23 22:34N 59°20' E 010°31'0 0.0
2016-May-23 21:34N 59°20' E 010°31'0 0.0
2016-May-23 20:34N 59°20' E 010°31'0 0.0
2016-May-23 19:34N 59°20' E 010°31'0 0.0
2016-May-23 18:34N 59°20' E 010°31'0 0.0
2016-May-23 17:34N 59°20' E 010°31'0 0.0
2016-May-23 16:33N 59°20' E 010°31'0 0.0
2016-May-23 15:34N 59°20' E 010°31'0 0.0
2016-May-23 14:34N 59°20' E 010°31'0 0.0
2016-May-23 13:34N 59°20' E 010°31'0 0.0
2016-May-23 12:34N 59°20' E 010°31'0 0.0
2016-May-23 11:34N 59°20' E 010°31'0 0.0
2016-May-23 10:34N 59°20' E 010°31'0 0.0
2016-May-23 09:34N 59°20' E 010°31'0 0.0
2016-May-23 08:33N 59°20' E 010°31'10 9.5
2016-May-23 07:34N 59°11' E 010°37'9 8.9
2016-May-23 06:34N 59°19' E 010°33'1 1.0
2016-May-23 05:34N 59°20' E 010°31'0 0.1
2016-May-23 04:34N 59°20' E 010°31'0 0.0
2016-May-23 03:34N 59°20' E 010°31'0 0.0
2016-May-23 02:34N 59°20' E 010°31'0 0.0
2016-May-23 01:34N 59°20' E 010°31'0 0.0
2016-May-23 00:34N 59°20' E 010°31'0 0.0
2016-May-22 23:34N 59°20' E 010°31'0 0.0
2016-May-22 22:34N 59°20' E 010°31'0 0.0
2016-May-22 21:33N 59°20' E 010°31'0 0.0
2016-May-22 20:33N 59°20' E 010°31'0 0.0
2016-May-22 19:34N 59°20' E 010°31'0 0.0
2016-May-22 18:34N 59°20' E 010°31'0 0.0
2016-May-22 17:34N 59°20' E 010°31'0 0.0
2016-May-22 16:34N 59°20' E 010°31'0 0.0
2016-May-22 15:34N 59°20' E 010°31'0 0.0
2016-May-22 14:34N 59°20' E 010°31'0 0.0
2016-May-22 13:34N 59°20' E 010°31'0 0.0
2016-May-22 12:33N 59°20' E 010°31'0 0.0
2016-May-22 11:34N 59°20' E 010°31'0 0.0
2016-May-22 10:34N 59°20' E 010°31'0 0.0
2016-May-22 09:34N 59°20' E 010°31'0 0.0
2016-May-22 08:34N 59°20' E 010°31'0 0.0
2016-May-22 07:34N 59°20' E 010°31'0 0.0
2016-May-22 06:34N 59°20' E 010°31'0 0.0
2016-May-22 05:34N 59°20' E 010°31'0 0.0
2016-May-22 04:34N 59°20' E 010°31'0 0.0
2016-May-22 03:34N 59°20' E 010°31'0 0.0
2016-May-22 02:34N 59°20' E 010°31'0 0.0
2016-May-22 01:34N 59°20' E 010°31'9 9.2
2016-May-22 00:34N 59°11' E 010°39'9 9.2
2016-May-21 23:34N 59°20' E 010°31'1 0.9
2016-May-21 22:34N 59°20' E 010°31'0 0.2
2016-May-21 21:34N 59°20' E 010°31'1 0.7
2016-May-21 20:34N 59°20' E 010°31'0 0.0
2016-May-21 19:34N 59°20' E 010°31'0 0.0
2016-May-21 18:34N 59°20' E 010°31'0 0.1
2016-May-21 17:34N 59°20' E 010°31'0 0.0
2016-May-21 16:34N 59°20' E 010°31'0 0.0
2016-May-21 15:34N 59°20' E 010°31'0 0.1
2016-May-21 14:34N 59°20' E 010°31'0 0.0
2016-May-21 13:34N 59°20' E 010°31'0 0.0
2016-May-21 12:34N 59°20' E 010°31'0 0.0
2016-May-21 11:34N 59°20' E 010°31'0 0.0
2016-May-21 10:34N 59°20' E 010°31'0 0.0
2016-May-21 09:34N 59°20' E 010°31'0 0.0
2016-May-21 08:34N 59°20' E 010°31'0 0.0
2016-May-21 07:34N 59°20' E 010°31'0 0.0
2016-May-21 06:34N 59°20' E 010°31'0 0.0
2016-May-21 05:34N 59°20' E 010°31'0 0.0
2016-May-21 04:34N 59°20' E 010°31'0 0.0
2016-May-21 03:33N 59°20' E 010°31'0 0.0
2016-May-21 02:34N 59°20' E 010°31'0 0.1
2016-May-21 01:34N 59°20' E 010°31'0 0.2
2016-May-21 00:34N 59°20' E 010°31'5 5.2
2016-May-20 23:34N 59°15' E 010°37'5 4.6
2016-May-20 22:34N 59°11' E 010°37'9 9.2
2016-May-20 21:34N 59°19' E 010°31'0 0.3
2016-May-20 20:34N 59°20' E 010°31'0 0.0
2016-May-20 19:34N 59°20' E 010°31'0 0.0
2016-May-20 18:34N 59°20' E 010°31'0 0.0
2016-May-20 17:34N 59°20' E 010°31'0 0.0
2016-May-20 16:34N 59°20' E 010°31'0 0.0
2016-May-20 15:34N 59°20' E 010°31'0 0.0
2016-May-20 14:33N 59°20' E 010°31'0 0.0
2016-May-20 13:34N 59°20' E 010°31'0 0.0
2016-May-20 12:33N 59°20' E 010°31'0 0.0
2016-May-20 11:34N 59°20' E 010°31'0 0.0
2016-May-20 10:34N 59°20' E 010°31'0 0.0
2016-May-20 09:34N 59°20' E 010°31'0 0.0
2016-May-20 08:34N 59°20' E 010°31'0 0.0
2016-May-20 07:34N 59°20' E 010°31'0 0.0
2016-May-20 06:34N 59°20' E 010°31'0 0.0
2016-May-20 05:34N 59°20' E 010°31'0 0.0
2016-May-20 04:34N 59°20' E 010°31'0 0.0
2016-May-20 03:34N 59°20' E 010°31'0 0.0
2016-May-20 02:34N 59°20' E 010°31'0 0.0
2016-May-20 01:34N 59°20' E 010°31'7 7.4
2016-May-20 00:34N 59°13' E 010°36'5 4.8
2016-May-19 23:34N 59°17' E 010°34'3 3.4
2016-May-19 22:33N 59°20' E 010°31'0 0.2
2016-May-19 21:34N 59°20' E 010°31'1 0.5
2016-May-19 20:34N 59°20' E 010°31'0 0.0
2016-May-19 19:33N 59°20' E 010°31'0 0.0
2016-May-19 18:34N 59°20' E 010°31'0 0.0
2016-May-19 17:34N 59°20' E 010°31'0 0.0
2016-May-19 16:34N 59°20' E 010°31'0 0.0
2016-May-19 15:34N 59°20' E 010°31'0 0.0
2016-May-19 14:34N 59°20' E 010°31'0 0.0
2016-May-19 13:34N 59°20' E 010°31'0 0.0
2016-May-19 12:34N 59°20' E 010°31'0 0.0
2016-May-19 11:34N 59°20' E 010°31'0 0.0
2016-May-19 10:34N 59°20' E 010°31'0 0.0
2016-May-19 09:34N 59°20' E 010°31'0 0.0
2016-May-19 08:34N 59°20' E 010°31'0 0.0
2016-May-19 07:34N 59°20' E 010°31'0 0.0
2016-May-19 06:34N 59°20' E 010°31'0 0.0
2016-May-19 05:34N 59°20' E 010°31'0 0.0
2016-May-19 04:34N 59°20' E 010°31'0 0.0
2016-May-19 03:34N 59°20' E 010°31'0 0.0
2016-May-19 02:34N 59°20' E 010°31'0 0.0
2016-May-19 01:34N 59°20' E 010°31'0 0.0
2016-May-19 00:34N 59°20' E 010°31'0 0.0
2016-May-18 23:34N 59°20' E 010°31'0 0.0
2016-May-18 22:34N 59°20' E 010°31'0 0.0
2016-May-18 21:34N 59°20' E 010°31'0 0.1
2016-May-18 20:34N 59°20' E 010°31'0 0.0
2016-May-18 19:33N 59°20' E 010°31'1 0.6
2016-May-18 18:33N 59°20' E 010°31'1 0.7
2016-May-18 17:34N 59°20' E 010°31'0 0.0
2016-May-18 16:34N 59°20' E 010°31'0 0.0
2016-May-18 15:34N 59°20' E 010°31'0 0.0
2016-May-18 14:34N 59°20' E 010°31'0 0.0
2016-May-18 13:34N 59°20' E 010°31'0 0.0
2016-May-18 12:34N 59°20' E 010°31'0 0.0
2016-May-18 11:34N 59°20' E 010°31'0 0.0
2016-May-18 10:34N 59°20' E 010°31'0 0.0
2016-May-18 09:34N 59°20' E 010°31'0 0.0
2016-May-18 08:34N 59°20' E 010°31'0 0.0
2016-May-18 07:34N 59°20' E 010°31'0 0.0
2016-May-18 06:34N 59°20' E 010°31'0 0.0
2016-May-18 05:33N 59°20' E 010°31'0 0.0
2016-May-18 04:34N 59°20' E 010°31'0 0.0
2016-May-18 03:34N 59°20' E 010°31'0 0.0
2016-May-18 02:34N 59°20' E 010°31'0 0.0
2016-May-18 01:33N 59°20' E 010°31'0 0.0
2016-May-18 00:34N 59°20' E 010°31'0 0.0
2016-May-17 23:34N 59°20' E 010°31'0 0.0
2016-May-17 22:34N 59°20' E 010°31'0 0.0
2016-May-17 21:34N 59°20' E 010°31'0 0.0
2016-May-17 20:34N 59°20' E 010°31'1 0.6
2016-May-17 19:34N 59°20' E 010°30'1 0.6
2016-May-17 18:34N 59°20' E 010°31'1 0.5
2016-May-17 17:34N 59°20' E 010°32'0 0.4
2016-May-17 16:34N 59°20' E 010°31'0 0.3
2016-May-17 15:33N 59°20' E 010°31'0 0.3
2016-May-17 14:33N 59°20' E 010°31'0 0.3
2016-May-17 13:34N 59°20' E 010°31'1 0.9
2016-May-17 12:34N 59°20' E 010°31'0 0.0
2016-May-17 11:34N 59°20' E 010°31'0 0.0
2016-May-17 10:33N 59°20' E 010°31'0 0.0
2016-May-17 09:34N 59°20' E 010°31'0 0.0
2016-May-17 08:34N 59°20' E 010°31'0 0.0
2016-May-17 07:34N 59°20' E 010°31'1 0.6
2016-May-17 06:34N 59°20' E 010°30'1 0.6
2016-May-17 05:34N 59°20' E 010°31'0 0.0
2016-May-17 04:34N 59°20' E 010°31'1 0.8
2016-May-17 03:34N 59°20' E 010°32'10 9.5
2016-May-17 02:34N 59°11' E 010°40'5 4.7
2016-May-17 01:33N 59°15' E 010°35'5 5.0
2016-May-17 00:34N 59°20' E 010°31'0 0.0
2016-May-16 23:33N 59°20' E 010°31'0 0.0
2016-May-16 22:33N 59°20' E 010°31'0 0.0
2016-May-16 21:34N 59°20' E 010°31'0 0.0
2016-May-16 20:34N 59°20' E 010°31'0 0.0
2016-May-16 19:34N 59°20' E 010°31'0 0.0
2016-May-16 18:34N 59°20' E 010°31'0 0.0
2016-May-16 17:34N 59°20' E 010°31'0 0.0
2016-May-16 16:34N 59°20' E 010°31'0 0.0
2016-May-16 15:34N 59°20' E 010°31'0 0.0
2016-May-16 14:34N 59°20' E 010°31'0 0.0
2016-May-16 13:34N 59°20' E 010°31'0 0.0
2016-May-16 12:34N 59°20' E 010°31'0 0.0
2016-May-16 11:34N 59°20' E 010°31'0 0.0
2016-May-16 10:34N 59°20' E 010°31'0 0.0
2016-May-16 09:34N 59°20' E 010°31'0 0.0
2016-May-16 08:34N 59°20' E 010°31'0 0.0
2016-May-16 07:34N 59°20' E 010°31'0 0.0
2016-May-16 06:34N 59°20' E 010°31'0 0.1
2016-May-16 05:34N 59°20' E 010°31'0 0.4
2016-May-16 04:34N 59°20' E 010°31'1 0.5
2016-May-16 03:34N 59°20' E 010°31'0 0.0
2016-May-16 02:34N 59°20' E 010°31'0 0.0
2016-May-16 01:34N 59°20' E 010°31'0 0.0
2016-May-16 00:34N 59°20' E 010°31'0 0.0
2016-May-15 23:34N 59°20' E 010°31'0 0.0
2016-May-15 22:34N 59°20' E 010°31'0 0.0
2016-May-15 21:34N 59°20' E 010°31'0 0.0
2016-May-15 20:34N 59°20' E 010°31'0 0.0
2016-May-15 19:34N 59°20' E 010°31'0 0.0
2016-May-15 18:34N 59°20' E 010°31'0 0.0
2016-May-15 17:34N 59°20' E 010°31'0 0.0
2016-May-15 16:34N 59°20' E 010°31'0 0.0
2016-May-15 15:34N 59°20' E 010°31'0 0.0
2016-May-15 14:34N 59°20' E 010°31'0 0.0
2016-May-15 13:34N 59°20' E 010°31'0 0.0
2016-May-15 12:34N 59°20' E 010°31'0 0.0
2016-May-15 11:34N 59°20' E 010°31'0 0.0
2016-May-15 10:33N 59°20' E 010°31'0 0.0
2016-May-15 09:34N 59°20' E 010°31'0 0.0
2016-May-15 08:34N 59°20' E 010°31'0 0.0
2016-May-15 07:34N 59°20' E 010°31'0 0.0
2016-May-15 06:34N 59°20' E 010°31'0 0.0
2016-May-15 05:34N 59°20' E 010°31'0 0.0
2016-May-15 04:34N 59°20' E 010°31'0 0.0
2016-May-15 03:34N 59°20' E 010°31'0 0.0
2016-May-15 02:34N 59°20' E 010°31'0 0.0
2016-May-15 01:34N 59°20' E 010°31'0 0.0
2016-May-15 00:34N 59°20' E 010°31'0 0.0
2016-May-14 23:34N 59°20' E 010°31'0 0.0
2016-May-14 22:33N 59°20' E 010°31'0 0.0
2016-May-14 21:34N 59°20' E 010°31'0 0.0
2016-May-14 20:34N 59°20' E 010°31'  

Dump ship's entire track history